logo
Search for airport 
image banner adimage banner adimage banner ad
image banner ad

EDCM - Kamenz

Located in Kamenz, Germany

ICAO - EDCM, IATA -

Data provided by Airmate  

General information

Coordinates: N51°17'49" E14°7'39"
Elevation is 495 feet MSL.
Magnetic variation is 4.0000° East
View others Airports in Saxony

Operational data

Special qualification required
Current time UTC:
Current local time:
Weather at : EDDC - Dresden ( 31 km )
METAR: EDDC 301820Z AUTO 16007KT 130V200 9999 VCSH FEW///TCU 18/12 Q1004 NOSIG
TAF: TAF EDDC 301700Z 3018/3118 15005KT 9999 FEW045 BECMG 3018/3020 21005KT TEMPO 3018/3020 4000 SHRA BKN035CB PROB30 TEMPO 3018/3020 TSRA BKN035CB BECMG 3022/3102 4000 BR BKN008 TEMPO 3100/3106 2500 BR BKN004 BECMG 3105/3108 32005KT 9999 BKN012 BECMG 3108/3111 SCT020 TEMPO 3116/3118 3000 SHRA BKN025CB
View NOTAMs / SUP AIP / TFR affecting this airport [VIEW]
Communications frequencies: [VIEW]

Runways:

RWY identifierQFULength (ft)Width (ft)SurfaceLDA (ft)
0333°360992CONC3609
21213°360992CONC3609
03G33°3609131GRASS3609
21G213°3609131GRASS3609

Airport contact information

Address: Kamenz Germany

Satellite view of EDCM